2000 HUDAH (2000083S17102)


On this page: IBTrACS data - Map and Plots - Positions - Intensities - Original source data

Summary

Start Mar 22
End Apr 9
Basin SI
LMI 125 kt
Sources jtwc_sh
bom
reunion
neumann
In WMO? Yes
Previous storm 2000 OLGA (SI)
Previous in basin 2000 OLGA (SI)
Concurrent storms 2000 HUDAH (SI)
2000 MISSING (NI)
2000 VAUGHAN (SP)
2000 TESSI (SP)
2000 1319992000 (SI)
Next in basin 2000 1319992000 (SI)
Next storm 2000 MISSING (NI)

top of page IBTrACS Data: File Access

top of page HURSAT Data: File Access

Image of storm

top of page Plots:

Map of storm track will not appear if FTP is down
Time series of cyclone Maximum Sustained Wind will not appear if FTP is down
Time series of cyclone Minimum Central Pressure will not appear if FTP is down

top of page Track Data:Position

jtwc_sh bom reunion neumann
Date Lat Lon Lat Lon Lat Lon Lat Lon
2000-03-22 18:00:00 -16.7 101.9 -16.7 101.9
2000-03-23 00:00:00 -16.6 100.7 -16.6 100.7
2000-03-23 06:00:00 -16.3 99.3 -16.3 99.3
2000-03-23 12:00:00 -16.1 98.1 -16.1 98.1
2000-03-23 18:00:00 -15.9 96.8 -15.9 96.8
2000-03-24 00:00:00 -15.7 95.4 -15.6 95.2 -15.5 95.3 -15.7 95.4
2000-03-24 06:00:00 -15.3 94.1 -15.4 93.8 -15.4 94.2 -15.3 94.1
2000-03-24 12:00:00 -15.3 93.0 -15.3 92.7 -15.3 92.9 -15.3 93.0
2000-03-24 18:00:00 -15.3 91.7 -15.2 91.5 -15.2 91.7 -15.3 91.7
2000-03-25 00:00:00 -15.3 90.5 -15.1 90.4 -15.1 90.3 -15.3 90.5
2000-03-25 06:00:00 -15.3 89.4 -15.3 89.3 -15.3 89.3 -15.3 89.4
2000-03-25 12:00:00 -15.3 88.2 -15.3 88.4 -15.3 88.4 -15.3 88.2
2000-03-25 18:00:00 -15.1 87.2 -15.2 87.5 -15.2 87.5 -15.1 87.2
2000-03-26 00:00:00 -15.0 86.3 -15.1 86.5 -15.1 86.5 -15.0 86.3
2000-03-26 06:00:00 -14.9 85.3 -14.9 85.3 -14.9 85.3 -14.9 85.3
2000-03-26 12:00:00 -14.7 84.2 -14.7 84.4 -14.7 84.4 -14.7 84.2
2000-03-26 18:00:00 -14.6 83.3 -14.7 83.7 -14.7 83.7 -14.6 83.3
2000-03-27 00:00:00 -14.6 82.6 -14.6 82.6 -14.6 82.6 -14.6 82.6
2000-03-27 06:00:00 -14.6 81.7 -14.5 81.6 -14.5 81.6 -14.6 81.7
2000-03-27 12:00:00 -14.6 80.7 -14.6 80.7 -14.6 80.7 -14.6 80.7
2000-03-27 18:00:00 -14.7 79.7 -14.7 79.5 -14.7 79.5 -14.7 79.7
2000-03-28 00:00:00 -14.8 78.5 -14.9 78.2 -14.9 78.2 -14.8 78.5
2000-03-28 06:00:00 -15.1 77.3 -15.2 77.1 -15.2 77.1 -15.1 77.3
2000-03-28 12:00:00 -15.5 76.1 -15.4 76.1 -15.4 76.1 -15.5 76.1
2000-03-28 18:00:00 -15.8 75.0 -15.8 75.1 -15.8 75.1 -15.8 75.0
jtwc_sh bom reunion neumann
2000-03-29 00:00:00 -16.1 73.9 -16.1 73.5 -16.1 73.5 -16.1 73.9
2000-03-29 06:00:00 -16.5 72.6 -16.3 72.6 -16.3 72.6 -16.5 72.6
2000-03-29 12:00:00 -16.8 71.4 -16.6 71.3 -16.6 71.3 -16.8 71.4
2000-03-29 18:00:00 -16.9 70.2 -16.8 70.1 -16.8 70.1 -16.9 70.2
2000-03-30 00:00:00 -16.9 68.9 -16.9 68.7 -16.9 68.7 -16.9 68.9
2000-03-30 06:00:00 -16.9 67.6 -16.8 67.7 -16.8 67.7 -16.9 67.6
2000-03-30 12:00:00 -17.0 66.5 -17.0 66.6 -17.0 66.6 -17.0 66.5
2000-03-30 18:00:00 -17.0 65.4 -17.1 65.4 -17.1 65.4 -17.0 65.4
2000-03-31 00:00:00 -17.0 64.3 -17.1 64.4 -17.1 64.4 -17.0 64.3
2000-03-31 06:00:00 -17.0 63.1 -17.0 63.0 -17.0 63.0 -17.0 63.1
2000-03-31 12:00:00 -17.0 61.8 -17.0 61.7 -17.0 61.7 -17.0 61.8
2000-03-31 18:00:00 -17.0 60.6 -17.1 60.6 -17.1 60.6 -17.0 60.6
2000-04-01 00:00:00 -17.0 59.4 -17.0 59.4 -17.0 59.4 -17.0 59.4
2000-04-01 06:00:00 -16.9 58.2 -16.8 58.1 -16.8 58.1 -16.9 58.2
2000-04-01 12:00:00 -16.6 56.9 -16.6 56.9 -16.6 56.9 -16.6 56.9
2000-04-01 18:00:00 -16.4 55.7 -16.5 55.6 -16.5 55.6 -16.4 55.7
2000-04-02 00:00:00 -16.2 54.4 -16.1 54.1 -16.1 54.1 -16.2 54.4
2000-04-02 06:00:00 -15.8 53.0 -15.6 52.9 -15.6 52.9 -15.8 53.0
2000-04-02 12:00:00 -15.4 51.6 -15.4 51.4 -15.4 51.4 -15.4 51.6
2000-04-02 18:00:00 -15.1 50.4 -15.0 50.5 -15.0 50.5 -15.1 50.4
2000-04-03 00:00:00 -14.9 49.0 -14.8 49.1 -14.8 49.1 -14.9 49.0
2000-04-03 06:00:00 -14.8 47.6 -14.9 47.4 -14.9 47.4 -14.8 47.6
2000-04-03 12:00:00 -14.8 46.5 -14.7 46.0 -14.7 46.0 -14.8 46.5
2000-04-03 18:00:00 -14.9 45.1 -14.7 45.2 -14.7 45.2 -14.9 45.1
jtwc_sh bom reunion neumann
2000-04-04 00:00:00 -15.2 44.2 -14.9 44.4 -14.9 44.4 -15.2 44.2
2000-04-04 06:00:00 -15.3 43.3 -15.2 43.5 -15.2 43.5 -15.3 43.3
2000-04-04 12:00:00 -15.3 42.3 -15.6 42.6 -15.6 42.6 -15.3 42.3
2000-04-04 18:00:00 -16.1 41.9 -16.1 41.8 -16.1 41.8 -16.1 41.9
2000-04-05 00:00:00 -16.5 41.0 -16.3 41.0 -16.3 41.0 -16.5 41.0
2000-04-05 06:00:00 -16.9 40.3 -16.6 40.2 -16.6 40.2 -16.9 40.3
2000-04-05 12:00:00 -17.1 39.8 -16.9 39.7 -16.9 39.7 -17.1 39.8
2000-04-05 18:00:00 -17.3 39.6 -17.2 39.4 -17.2 39.4 -17.3 39.6
2000-04-06 00:00:00 -17.5 39.4 -17.7 39.0 -17.7 39.0 -17.5 39.4
2000-04-06 06:00:00 -18.0 38.9 -18.0 38.8 -18.0 38.8 -18.0 38.9
2000-04-06 12:00:00 -18.6 38.7 -18.5 38.6 -18.5 38.6 -18.6 38.7
2000-04-06 18:00:00 -18.9 38.6 -18.8 38.6 -18.8 38.6 -18.9 38.6
2000-04-07 00:00:00 -19.0 38.4 -18.8 38.3 -18.8 38.3 -19.0 38.4
2000-04-07 06:00:00 -18.8 38.3 -18.7 38.3 -18.7 38.3 -18.8 38.3
2000-04-07 12:00:00 -18.6 38.3 -18.6 38.1 -18.6 38.1 -18.6 38.3
2000-04-07 18:00:00 -18.3 38.5 -18.1 38.6 -18.1 38.6 -18.3 38.5
2000-04-08 00:00:00 -18.0 38.4 -17.8 38.5 -17.8 38.5 -18.0 38.4
2000-04-08 06:00:00 -17.2 38.3 -17.2 38.3 -17.2 38.3 -17.2 38.3
2000-04-08 12:00:00 -16.7 38.4 -16.7 38.3 -16.7 38.3 -16.7 38.4
2000-04-08 18:00:00 -16.1 38.5 -16.1 38.3 -16.1 38.3 -16.1 38.5
2000-04-09 00:00:00 -15.3 38.6 -15.6 38.3 -15.6 38.3 -15.3 38.6
2000-04-09 06:00:00 -15.0 38.5 -15.0 38.5
2000-04-09 12:00:00 -14.4 38.2 -14.4 38.2

top of pageTrack Data:Intensity

jtwc_sh bom reunion neumann
Date Wind Pres Wind Pres Wind Pres Wind Pres
2000-03-22 18:00:00 20. 20.
2000-03-23 00:00:00 20. 20.
2000-03-23 06:00:00 20. 20.
2000-03-23 12:00:00 20. 20.
2000-03-23 18:00:00 25. 25.
2000-03-24 00:00:00 25. 35. 998. 20. 1002. 25.
2000-03-24 06:00:00 25. 40. 1000. 25. 1000. 25.
2000-03-24 12:00:00 30. 40. 999. 25. 999. 30.
2000-03-24 18:00:00 35. 45. 997. 30. 997. 35.
2000-03-25 00:00:00 35. 50. 994. 35. 994. 35.
2000-03-25 06:00:00 55. 990. 40. 990. 55.
2000-03-25 12:00:00 70. 980. 53. 980. 70.
2000-03-25 18:00:00 65. 978. 55. 978. 65.
2000-03-26 00:00:00 65. 978. 55. 978. 65.
2000-03-26 06:00:00 65. 978. 55. 978. 65.
2000-03-26 12:00:00 65. 976. 57. 976. 65.
2000-03-26 18:00:00 65. 974. 60. 974. 65.
2000-03-27 00:00:00 70. 970. 65. 970. 70.
2000-03-27 06:00:00 80. 965. 70. 965. 80.
2000-03-27 12:00:00 85. 965. 70. 965. 85.
2000-03-27 18:00:00 90. 965. 70. 965. 90.
2000-03-28 00:00:00 95. 960. 75. 960. 95.
2000-03-28 06:00:00 100. 960. 75. 960. 100.
2000-03-28 12:00:00 100. 960. 75. 960. 100.
2000-03-28 18:00:00 100. 960. 75. 960. 100.
jtwc_sh bom reunion neumann
2000-03-29 00:00:00 90. 955. 80. 955. 90.
2000-03-29 06:00:00 90. 950. 83. 950. 90.
2000-03-29 12:00:00 95. 950. 83. 950. 95.
2000-03-29 18:00:00 90. 950. 83. 950. 90.
2000-03-30 00:00:00 90. 955. 80. 955. 90.
2000-03-30 06:00:00 85. 960. 75. 960. 85.
2000-03-30 12:00:00 80. 965. 70. 965. 80.
2000-03-30 18:00:00 80. 965. 70. 965. 80.
2000-03-31 00:00:00 90. 960. 75. 960. 90.
2000-03-31 06:00:00 100. 945. 85. 945. 100.
2000-03-31 12:00:00 100. 935. 95. 935. 100.
2000-03-31 18:00:00 100. 928. 100. 928. 100.
2000-04-01 00:00:00 120. 915. 110. 915. 120.
2000-04-01 06:00:00 120. 910. 115. 910. 120.
2000-04-01 12:00:00 125. 910. 115. 910. 125.
2000-04-01 18:00:00 125. 910. 115. 910. 125.
2000-04-02 00:00:00 125. 905. 120. 905. 125.
2000-04-02 06:00:00 125. 905. 120. 905. 125.
2000-04-02 12:00:00 125. 905. 120. 905. 125.
2000-04-02 18:00:00 115. 910. 115. 910. 115.
2000-04-03 00:00:00 100. 100.
2000-04-03 06:00:00 75. 75.
2000-04-03 12:00:00 70. 996. 30. 996. 70.
2000-04-03 18:00:00 55. 997. 30. 997. 55.
jtwc_sh bom reunion neumann
2000-04-04 00:00:00 45. 994. 35. 994. 45.
2000-04-04 06:00:00 45. 990. 40. 990. 45.
2000-04-04 12:00:00 55. 983. 50. 983. 55.
2000-04-04 18:00:00 65. 978. 55. 978. 65.
2000-04-05 00:00:00 65. 975. 60. 975. 65.
2000-04-05 06:00:00 65. 975. 60. 975. 65.
2000-04-05 12:00:00 65. 975. 60. 975. 65.
2000-04-05 18:00:00 65. 970. 65. 970. 65.
2000-04-06 00:00:00 70. 965. 70. 965. 70.
2000-04-06 06:00:00 70. 965. 70. 965. 70.
2000-04-06 12:00:00 70. 965. 70. 965. 70.
2000-04-06 18:00:00 90. 960. 75. 960. 90.
2000-04-07 00:00:00 90. 955. 80. 955. 90.
2000-04-07 06:00:00 100. 947. 85. 947. 100.
2000-04-07 12:00:00 100. 947. 85. 947. 100.
2000-04-07 18:00:00 100. 947. 85. 947. 100.
2000-04-08 00:00:00 90. 955. 80. 955. 90.
2000-04-08 06:00:00 80. 970. 65. 970. 80.
2000-04-08 12:00:00 70. 70.
2000-04-08 18:00:00 55. 55.
2000-04-09 00:00:00 35. 35.
2000-04-09 06:00:00 30. 30.
2000-04-09 12:00:00 25. 25.

top of page Links to source data

Source Source file Format
jtwc_sh bsh212000.txt ATCF
bom IDCKMSTM0S.csv:Line=21907:HUDAH CSV file (from Excel file)
reunion WMO-Best-Tracks.txt:Line=19073:hudah WMO (old format)
neumann tracks.sh:Storm=1197:HUDAH:21S:BSH212000 HURDAT